createdAt,value
2019-05-01T00:00:22.803Z,9.28
2019-05-01T00:03:09.042Z,9.20
2019-05-01T00:05:41.818Z,9.14
2019-05-01T00:08:10.797Z,9.06
2019-05-01T00:10:39.348Z,8.99
2019-05-01T00:13:08.047Z,8.91
2019-05-01T00:15:38.523Z,8.87
2019-05-01T00:18:06.961Z,8.80
2019-05-01T00:20:35.443Z,8.73
2019-05-01T00:23:03.951Z,8.65
2019-05-01T00:25:32.371Z,8.61
2019-05-01T00:28:00.819Z,8.57
2019-05-01T00:30:30.519Z,8.54
2019-05-01T00:32:58.918Z,8.44
2019-05-01T00:35:27.357Z,8.41
2019-05-01T00:37:55.807Z,8.37
2019-05-01T00:40:24.207Z,8.31
2019-05-01T00:42:52.691Z,8.30
2019-05-01T00:45:21.130Z,8.28
2019-05-01T00:47:49.546Z,8.23
2019-05-01T00:50:17.980Z,8.18
2019-05-01T00:52:46.401Z,8.17
2019-05-01T00:55:32.991Z,8.11
2019-05-01T00:58:05.971Z,8.10
2019-05-01T01:00:44.718Z,8.09
2019-05-01T01:03:13.200Z,8.09
2019-05-01T01:05:41.642Z,8.06
2019-05-01T01:08:10.057Z,8.06
2019-05-01T01:10:38.494Z,8.08
2019-05-01T01:13:06.904Z,8.10
2019-05-01T01:15:35.350Z,8.14
2019-05-01T01:18:03.827Z,8.15
2019-05-01T01:20:32.267Z,8.16
2019-05-01T01:23:00.746Z,8.17
2019-05-01T01:25:29.184Z,8.20
2019-05-01T01:27:57.594Z,8.21
2019-05-01T01:30:26.200Z,8.20
2019-05-01T01:32:54.610Z,8.20
2019-05-01T01:35:23.122Z,8.22
2019-05-01T01:37:51.534Z,8.23
2019-05-01T01:40:20.018Z,8.28
2019-05-01T01:42:50.373Z,8.28
2019-05-01T01:45:20.484Z,8.30
2019-05-01T01:48:06.714Z,8.31
2019-05-01T01:50:35.294Z,8.31
2019-05-01T01:53:03.807Z,8.31
2019-05-01T01:55:32.215Z,8.34
2019-05-01T01:58:00.720Z,8.33
2019-05-01T02:00:42.658Z,8.34
2019-05-01T02:03:11.103Z,8.35
2019-05-01T02:05:41.218Z,8.34
2019-05-01T02:08:09.657Z,8.31
2019-05-01T02:10:42.980Z,8.27
2019-05-01T02:13:08.670Z,8.24
2019-05-01T02:15:37.154Z,8.23
2019-05-01T02:18:05.602Z,8.24
2019-05-01T02:20:34.144Z,8.24
2019-05-01T02:23:02.588Z,8.25
2019-05-01T02:25:32.269Z,8.23
2019-05-01T02:28:18.665Z,8.24
2019-05-01T02:30:49.581Z,8.22
2019-05-01T02:33:18.029Z,8.22
2019-05-01T02:35:46.435Z,8.22
2019-05-01T02:38:15.941Z,8.24
2019-05-01T02:40:49.925Z,8.27
2019-05-01T02:43:19.132Z,8.28
2019-05-01T02:45:50.725Z,8.26
2019-05-01T02:48:20.704Z,8.27
2019-05-01T02:50:51.063Z,8.27
2019-05-01T02:53:21.032Z,8.26
2019-05-01T02:56:07.611Z,8.27
2019-05-01T02:58:36.126Z,8.28
2019-05-01T03:01:04.607Z,8.29
2019-05-01T03:03:33.113Z,8.30
2019-05-01T03:06:01.581Z,8.28
2019-05-01T03:08:30.093Z,8.30
2019-05-01T03:10:58.502Z,8.29
2019-05-01T03:13:27.008Z,8.31
2019-05-01T03:15:55.950Z,8.33
2019-05-01T03:18:28.429Z,8.34
2019-05-01T03:20:58.780Z,8.35
2019-05-01T03:23:31.763Z,8.34
2019-05-01T03:26:00.906Z,8.34
2019-05-01T03:28:29.407Z,8.35
2019-05-01T03:30:58.098Z,8.34
2019-05-01T03:33:26.548Z,8.36
2019-05-01T03:35:55.204Z,8.38
2019-05-01T03:38:23.722Z,8.41
2019-05-01T03:40:52.129Z,8.42
2019-05-01T03:43:20.664Z,8.45
2019-05-01T03:45:49.453Z,8.48
2019-05-01T03:48:18.095Z,8.46
2019-05-01T03:50:47.514Z,8.47
2019-05-01T03:53:16.160Z,8.48
2019-05-01T03:55:44.592Z,8.47
2019-05-01T03:58:13.072Z,8.51
2019-05-01T04:00:49.268Z,8.53
2019-05-01T04:03:22.124Z,8.53
2019-05-01T04:05:51.125Z,8.52
2019-05-01T04:08:19.609Z,8.50
2019-05-01T04:10:48.817Z,8.52
2019-05-01T04:13:17.228Z,8.54
2019-05-01T04:15:45.732Z,8.54
2019-05-01T04:18:14.209Z,8.56
2019-05-01T04:20:42.726Z,8.54
2019-05-01T04:23:11.200Z,8.53
2019-05-01T04:25:39.913Z,8.54
2019-05-01T04:28:25.075Z,8.56
2019-05-01T04:30:55.327Z,8.56
2019-05-01T04:33:23.811Z,8.57
2019-05-01T04:36:02.442Z,8.56
2019-05-01T04:38:30.911Z,8.56
2019-05-01T04:40:59.419Z,8.60
2019-05-01T04:43:27.998Z,8.58
2019-05-01T04:45:57.004Z,8.63
2019-05-01T04:48:25.480Z,8.62
2019-05-01T04:50:54.085Z,8.60
2019-05-01T04:53:22.561Z,8.57
2019-05-01T04:55:51.058Z,8.59
2019-05-01T04:58:20.432Z,8.63
2019-05-01T05:00:49.109Z,8.63
2019-05-01T05:03:19.224Z,8.61
2019-05-01T05:05:48.530Z,8.62
2019-05-01T05:08:17.008Z,8.62
2019-05-01T05:10:46.259Z,8.64
2019-05-01T05:13:19.168Z,8.66
2019-05-01T05:15:49.880Z,8.65
2019-05-01T05:18:18.358Z,8.65
2019-05-01T05:20:46.864Z,8.72
2019-05-01T05:23:15.510Z,8.75
2019-05-01T05:25:43.961Z,8.75
2019-05-01T05:28:13.237Z,8.79
2019-05-01T05:30:43.185Z,8.87
2019-05-01T05:33:18.454Z,8.91
2019-05-01T05:35:43.427Z,8.94
2019-05-01T05:38:22.898Z,8.96
2019-05-01T05:40:51.573Z,8.92
2019-05-01T05:43:20.075Z,8.94
2019-05-01T05:45:48.487Z,9.04
2019-05-01T05:48:16.987Z,9.01
2019-05-01T05:51:02.947Z,9.03
2019-05-01T05:53:48.404Z,9.13
2019-05-01T05:56:20.062Z,9.17
2019-05-01T05:58:51.710Z,9.18
2019-05-01T06:01:22.437Z,9.30
2019-05-01T06:04:05.903Z,9.39
2019-05-01T06:06:53.140Z,9.41
2019-05-01T06:09:23.684Z,9.50
2019-05-01T06:11:54.676Z,9.60
2019-05-01T06:14:41.709Z,9.64
2019-05-01T06:17:11.764Z,9.67
2019-05-01T06:19:53.649Z,9.72
2019-05-01T06:22:26.842Z,9.74
2019-05-01T06:25:21.528Z,9.79
2019-05-01T06:27:39.440Z,9.82
2019-05-01T06:30:11.049Z,9.79
2019-05-01T06:32:41.217Z,9.69
2019-05-01T06:35:10.220Z,9.70
2019-05-01T06:38:00.721Z,9.79
2019-05-01T06:40:40.737Z,9.74
2019-05-01T06:43:13.992Z,9.70
2019-05-01T06:45:46.930Z,9.75
2019-05-01T06:48:25.243Z,9.74
2019-05-01T06:50:55.356Z,9.80
2019-05-01T06:53:24.338Z,9.75
2019-05-01T06:55:53.042Z,9.76
2019-05-01T06:58:21.948Z,9.82
2019-05-01T07:00:50.767Z,9.76
2019-05-01T07:03:19.611Z,9.70
2019-05-01T07:05:48.979Z,9.62
2019-05-01T07:08:24.685Z,9.68
2019-05-01T07:10:48.757Z,9.69
2019-05-01T07:13:17.230Z,9.71
2019-05-01T07:15:45.738Z,9.61
2019-05-01T07:18:14.145Z,9.71
2019-05-01T07:20:47.346Z,9.76
2019-05-01T07:23:18.668Z,9.77
2019-05-01T07:25:47.258Z,9.81
2019-05-01T07:28:15.735Z,9.82
2019-05-01T07:30:49.980Z,9.86
2019-05-01T07:33:16.565Z,9.94
2019-05-01T07:35:46.402Z,9.95
2019-05-01T07:38:14.866Z,9.99
2019-05-01T07:40:43.674Z,10.02
2019-05-01T07:43:23.916Z,10.19
2019-05-01T07:45:55.004Z,10.50
2019-05-01T07:48:41.086Z,10.87
2019-05-01T07:51:06.965Z,10.85
2019-05-01T07:53:39.967Z,10.93
2019-05-01T07:56:08.468Z,11.07
2019-05-01T07:58:37.413Z,10.93
2019-05-01T08:01:18.178Z,11.06
2019-05-01T08:03:46.251Z,11.04
2019-05-01T08:06:16.246Z,11.15
2019-05-01T08:08:44.893Z,11.44
2019-05-01T08:11:13.334Z,11.57
2019-05-01T08:13:41.741Z,11.64
2019-05-01T08:16:10.249Z,11.46
2019-05-01T08:18:42.788Z,11.20
2019-05-01T08:21:21.065Z,11.28
2019-05-01T08:23:48.497Z,11.56
2019-05-01T08:26:16.946Z,11.41
2019-05-01T08:29:06.807Z,11.56
2019-05-01T08:31:52.993Z,11.67
2019-05-01T08:34:25.316Z,11.80
2019-05-01T08:36:53.206Z,11.89
2019-05-01T08:39:21.616Z,11.74
2019-05-01T08:41:50.049Z,11.61
2019-05-01T08:44:20.033Z,11.80
2019-05-01T08:46:55.676Z,11.95
2019-05-01T08:49:28.667Z,11.94
2019-05-01T08:51:57.111Z,11.91
2019-05-01T08:54:28.870Z,11.86
2019-05-01T08:56:58.105Z,11.93
2019-05-01T08:59:25.901Z,12.03
2019-05-01T09:02:08.522Z,12.18
2019-05-01T09:04:25.394Z,12.16
2019-05-01T09:06:54.650Z,12.05
2019-05-01T09:09:23.152Z,11.87
2019-05-01T09:11:54.421Z,11.99
2019-05-01T09:14:21.722Z,11.78
2019-05-01T09:16:52.449Z,11.50
2019-05-01T09:19:20.426Z,11.46
2019-05-01T09:21:48.833Z,11.46
2019-05-01T09:24:17.413Z,11.53
2019-05-01T09:26:53.385Z,11.61
2019-05-01T09:29:29.175Z,11.67
2019-05-01T09:31:57.657Z,11.81
2019-05-01T09:34:26.161Z,11.82
2019-05-01T09:36:54.565Z,12.04
2019-05-01T09:39:23.841Z,12.10
2019-05-01T09:41:52.242Z,12.09
2019-05-01T09:44:20.750Z,12.10
2019-05-01T09:46:49.157Z,11.87
2019-05-01T09:49:19.412Z,11.92
2019-05-01T09:51:52.328Z,11.81
2019-05-01T09:54:28.305Z,11.79
2019-05-01T09:56:56.715Z,11.35
2019-05-01T09:59:25.157Z,11.13
2019-05-01T10:01:53.567Z,11.19
2019-05-01T10:04:25.390Z,11.14
2019-05-01T10:06:54.026Z,11.15
2019-05-01T10:09:22.301Z,11.02
2019-05-01T10:11:50.711Z,10.97
2019-05-01T10:14:19.416Z,10.95
2019-05-01T10:16:47.888Z,11.00
2019-05-01T10:19:16.326Z,11.08
2019-05-01T10:21:44.732Z,10.98
2019-05-01T10:24:13.236Z,10.95
2019-05-01T10:26:43.283Z,10.73
2019-05-01T10:29:26.278Z,10.67
2019-05-01T10:31:59.677Z,10.97
2019-05-01T10:34:29.746Z,11.32
2019-05-01T10:36:58.161Z,12.05
2019-05-01T10:39:26.633Z,12.63
2019-05-01T10:41:55.076Z,12.79
2019-05-01T10:44:23.486Z,12.63
2019-05-01T10:46:51.920Z,12.37
2019-05-01T10:49:20.323Z,12.32
2019-05-01T10:51:48.763Z,12.36
2019-05-01T10:54:17.166Z,12.72
2019-05-01T10:56:45.603Z,12.86
2019-05-01T10:59:14.015Z,13.30
2019-05-01T11:01:49.892Z,13.19
2019-05-01T11:04:18.362Z,13.18
2019-05-01T11:06:46.874Z,13.57
2019-05-01T11:09:15.271Z,13.37
2019-05-01T11:11:43.702Z,13.48
2019-05-01T11:14:12.102Z,13.75
2019-05-01T11:16:40.537Z,13.51
2019-05-01T11:19:08.942Z,13.01
2019-05-01T11:21:37.379Z,13.32
2019-05-01T11:24:05.851Z,13.17
2019-05-01T11:26:34.287Z,12.81
2019-05-01T11:29:02.693Z,12.82
2019-05-01T11:31:35.418Z,12.83
2019-05-01T11:34:21.983Z,12.76
2019-05-01T11:37:00.704Z,12.95
2019-05-01T11:39:35.937Z,12.82
2019-05-01T11:42:15.101Z,13.10
2019-05-01T11:44:43.509Z,13.22
2019-05-01T11:47:11.932Z,13.10
2019-05-01T11:49:40.336Z,13.16
2019-05-01T11:52:08.771Z,13.07
2019-05-01T11:54:37.210Z,13.20
2019-05-01T11:57:05.679Z,13.50
2019-05-01T11:59:34.094Z,13.18
2019-05-01T12:02:02.656Z,13.66
2019-05-01T12:04:31.064Z,13.46
2019-05-01T12:06:59.498Z,13.09
2019-05-01T12:09:27.910Z,13.37
2019-05-01T12:11:58.047Z,13.53
2019-05-01T12:14:26.456Z,13.69
2019-05-01T12:17:05.171Z,13.41
2019-05-01T12:19:34.346Z,13.04
2019-05-01T12:22:02.782Z,13.24
2019-05-01T12:24:31.191Z,13.43
2019-05-01T12:26:59.624Z,13.07
2019-05-01T12:29:28.023Z,12.96
2019-05-01T12:31:56.457Z,12.89
2019-05-01T12:34:24.864Z,13.01
2019-05-01T12:36:54.906Z,13.30
2019-05-01T12:39:23.338Z,13.40
2019-05-01T12:41:53.389Z,13.40
2019-05-01T12:44:21.899Z,12.80
2019-05-01T12:47:01.004Z,12.80
2019-05-01T12:49:29.436Z,12.91
2019-05-01T12:52:09.913Z,12.93
2019-05-01T12:54:31.276Z,12.94
2019-05-01T12:57:01.361Z,13.12
2019-05-01T12:59:29.868Z,13.31
2019-05-01T13:01:58.273Z,13.17
2019-05-01T13:04:26.706Z,13.04
2019-05-01T13:06:56.954Z,13.14
2019-05-01T13:09:25.384Z,13.21
2019-05-01T13:11:53.784Z,12.94
2019-05-01T13:14:22.290Z,12.92
2019-05-01T13:16:50.698Z,12.87
2019-05-01T13:19:19.133Z,13.18
2019-05-01T13:21:47.540Z,13.88
2019-05-01T13:24:15.966Z,13.78
2019-05-01T13:26:48.927Z,13.34
2019-05-01T13:29:31.233Z,13.25
2019-05-01T13:32:16.796Z,13.06
2019-05-01T13:34:45.295Z,12.52
2019-05-01T13:37:13.714Z,12.67
2019-05-01T13:39:42.152Z,12.92
2019-05-01T13:42:10.549Z,12.63
2019-05-01T13:44:38.986Z,12.63
2019-05-01T13:47:07.392Z,13.11
2019-05-01T13:49:35.910Z,12.99
2019-05-01T13:52:04.380Z,13.25
2019-05-01T13:54:32.783Z,13.29
2019-05-01T13:57:01.215Z,13.71
2019-05-01T13:59:29.621Z,14.12
2019-05-01T14:01:58.126Z,14.08
2019-05-01T14:04:27.087Z,14.26
2019-05-01T14:06:55.514Z,13.93
2019-05-01T14:09:25.559Z,13.57
2019-05-01T14:11:53.991Z,13.29
2019-05-01T14:14:22.392Z,13.36
2019-05-01T14:16:50.826Z,13.75
2019-05-01T14:19:19.237Z,14.01
2019-05-01T14:21:51.789Z,13.86
2019-05-01T14:24:21.833Z,13.44
2019-05-01T14:26:50.261Z,13.37
2019-05-01T14:29:18.675Z,13.74
2019-05-01T14:31:47.099Z,13.67
2019-05-01T14:34:15.504Z,13.89
2019-05-01T14:36:43.935Z,13.88
2019-05-01T14:39:12.336Z,13.56
2019-05-01T14:41:40.772Z,13.17
2019-05-01T14:44:09.173Z,12.94
2019-05-01T14:46:37.610Z,12.90
2019-05-01T14:49:06.086Z,13.09
2019-05-01T14:51:34.587Z,13.20
2019-05-01T14:54:02.989Z,12.97
2019-05-01T14:56:31.428Z,12.89
2019-05-01T14:58:59.848Z,13.12
2019-05-01T15:01:28.259Z,13.37
2019-05-01T15:03:56.662Z,13.63
2019-05-01T15:06:25.107Z,13.49
2019-05-01T15:08:53.508Z,13.61
2019-05-01T15:11:21.911Z,13.65
2019-05-01T15:13:57.940Z,13.39
2019-05-01T15:16:33.961Z,13.18
2019-05-01T15:19:06.871Z,13.15
2019-05-01T15:21:35.419Z,13.09
2019-05-01T15:24:03.920Z,13.24
2019-05-01T15:26:32.320Z,13.49
2019-05-01T15:29:00.907Z,13.69
2019-05-01T15:31:29.332Z,13.89
2019-05-01T15:33:57.765Z,13.95
2019-05-01T15:36:26.190Z,13.85
2019-05-01T15:38:54.774Z,13.67
2019-05-01T15:41:30.696Z,13.64
2019-05-01T15:44:06.301Z,13.70
2019-05-01T15:46:36.340Z,14.18
2019-05-01T15:49:04.940Z,14.18
2019-05-01T15:51:33.346Z,13.72
2019-05-01T15:54:01.779Z,13.40
2019-05-01T15:56:30.177Z,13.20
2019-05-01T15:58:58.608Z,12.93
2019-05-01T16:01:27.016Z,12.73
2019-05-01T16:03:55.445Z,13.00
2019-05-01T16:06:23.849Z,13.25
2019-05-01T16:08:52.279Z,13.17
2019-05-01T16:11:40.197Z,13.08
2019-05-01T16:14:08.700Z,13.02
2019-05-01T16:16:37.171Z,12.77
2019-05-01T16:19:05.608Z,12.73
2019-05-01T16:21:34.152Z,12.87
2019-05-01T16:24:02.650Z,12.96
2019-05-01T16:26:31.057Z,12.89
2019-05-01T16:28:59.489Z,12.84
2019-05-01T16:31:27.958Z,12.83
2019-05-01T16:33:56.390Z,12.55
2019-05-01T16:36:24.795Z,12.75
2019-05-01T16:38:57.571Z,12.73
2019-05-01T16:41:27.852Z,12.78
2019-05-01T16:43:56.283Z,12.80
2019-05-01T16:46:24.685Z,12.60
2019-05-01T16:48:53.123Z,12.42
2019-05-01T16:51:21.526Z,12.17
2019-05-01T16:53:50.022Z,12.18
2019-05-01T16:56:18.428Z,12.18
2019-05-01T16:58:46.855Z,12.02
2019-05-01T17:01:17.168Z,11.98
2019-05-01T17:04:03.386Z,12.03
2019-05-01T17:06:39.257Z,11.98
2019-05-01T17:09:26.579Z,11.77
2019-05-01T17:11:55.053Z,11.74
2019-05-01T17:14:23.579Z,11.79
2019-05-01T17:16:51.982Z,11.83
2019-05-01T17:19:20.384Z,11.89
2019-05-01T17:21:48.818Z,11.83
2019-05-01T17:24:17.287Z,11.83
2019-05-01T17:26:45.786Z,11.77
2019-05-01T17:29:14.187Z,11.58
2019-05-01T17:31:42.619Z,11.59
2019-05-01T17:34:11.089Z,11.66
2019-05-01T17:36:39.597Z,11.71
2019-05-01T17:39:08.073Z,11.43
2019-05-01T17:41:36.504Z,11.15
2019-05-01T17:44:05.076Z,10.75
2019-05-01T17:46:33.581Z,10.59
2019-05-01T17:49:04.222Z,10.58
2019-05-01T17:51:32.151Z,10.60
2019-05-01T17:54:00.562Z,10.63
2019-05-01T17:56:28.997Z,10.57
2019-05-01T17:58:57.407Z,10.48
2019-05-01T18:01:39.731Z,10.41
2019-05-01T18:04:12.718Z,10.34
2019-05-01T18:06:46.508Z,10.30
2019-05-01T18:09:15.551Z,10.27
2019-05-01T18:11:47.346Z,10.27
2019-05-01T18:14:14.331Z,10.23
2019-05-01T18:16:42.765Z,10.18
2019-05-01T18:19:11.418Z,10.08
2019-05-01T18:21:41.581Z,9.97
2019-05-01T18:24:14.164Z,9.95
2019-05-01T18:26:47.224Z,9.89
2019-05-01T18:29:17.331Z,9.89
2019-05-01T18:31:45.803Z,9.78
2019-05-01T18:34:14.228Z,9.64
2019-05-01T18:36:44.276Z,9.61
2019-05-01T18:39:16.553Z,9.56
2019-05-01T18:42:02.376Z,9.53
2019-05-01T18:44:30.798Z,9.51
2019-05-01T18:46:59.201Z,9.41
2019-05-01T18:49:27.628Z,9.36
2019-05-01T18:51:56.033Z,9.33
2019-05-01T18:54:24.463Z,9.32
2019-05-01T18:56:54.661Z,9.32
2019-05-01T18:59:23.104Z,9.33
2019-05-01T19:01:51.769Z,9.30
2019-05-01T19:04:23.590Z,9.29
2019-05-01T19:06:50.404Z,9.28
2019-05-01T19:09:29.305Z,9.27
2019-05-01T19:11:48.970Z,9.28
2019-05-01T19:14:18.665Z,9.26
2019-05-01T19:16:47.263Z,9.24
2019-05-01T19:19:15.644Z,9.16
2019-05-01T19:21:46.436Z,9.12
2019-05-01T19:24:14.469Z,8.99
2019-05-01T19:26:44.112Z,8.83
2019-05-01T19:29:12.902Z,8.81
2019-05-01T19:31:41.263Z,8.78
2019-05-01T19:34:09.981Z,8.78
2019-05-01T19:36:40.358Z,8.72
2019-05-01T19:39:11.529Z,8.70
2019-05-01T19:41:38.695Z,8.68
2019-05-01T19:44:07.132Z,8.70
2019-05-01T19:46:35.528Z,8.69
2019-05-01T19:49:04.075Z,8.70
2019-05-01T19:51:32.586Z,8.70
2019-05-01T19:54:01.059Z,8.72
2019-05-01T19:56:29.492Z,8.73
2019-05-01T19:58:57.897Z,8.71
2019-05-01T20:01:26.399Z,8.69
2019-05-01T20:03:54.802Z,8.68
2019-05-01T20:06:23.240Z,8.67
2019-05-01T20:08:51.644Z,8.67
2019-05-01T20:11:20.153Z,8.66
2019-05-01T20:13:48.561Z,8.67
2019-05-01T20:16:17.760Z,8.67
2019-05-01T20:18:46.234Z,8.66
2019-05-01T20:21:14.737Z,8.60
2019-05-01T20:23:43.142Z,8.55
2019-05-01T20:26:11.571Z,8.49
2019-05-01T20:28:40.045Z,8.41
2019-05-01T20:31:08.475Z,8.35
2019-05-01T20:33:38.605Z,8.32
2019-05-01T20:36:07.468Z,8.31
2019-05-01T20:38:35.935Z,8.28
2019-05-01T20:41:04.369Z,8.26
2019-05-01T20:43:33.578Z,8.26
2019-05-01T20:46:02.244Z,8.27
2019-05-01T20:48:30.646Z,8.28
2019-05-01T20:50:59.078Z,8.30
2019-05-01T20:53:27.482Z,8.30
2019-05-01T20:56:00.063Z,8.29
2019-05-01T20:58:28.467Z,8.31
2019-05-01T21:00:58.505Z,8.31
2019-05-01T21:03:26.935Z,8.31
2019-05-01T21:05:56.980Z,8.29
2019-05-01T21:08:39.530Z,8.27
2019-05-01T21:11:11.052Z,8.26
2019-05-01T21:13:39.734Z,8.23
2019-05-01T21:16:08.141Z,8.21
2019-05-01T21:18:36.565Z,8.20
2019-05-01T21:21:04.972Z,8.21
2019-05-01T21:23:33.533Z,8.20
2019-05-01T21:26:03.740Z,8.19
2019-05-01T21:28:33.921Z,8.19
2019-05-01T21:31:03.951Z,8.20
2019-05-01T21:33:33.967Z,8.20
2019-05-01T21:36:04.790Z,8.21
2019-05-01T21:38:32.810Z,8.24
2019-05-01T21:41:02.707Z,8.23
2019-05-01T21:43:35.271Z,8.23
2019-05-01T21:46:03.785Z,8.24
2019-05-01T21:48:33.416Z,8.21
2019-05-01T21:51:03.354Z,8.22
2019-05-01T21:53:32.769Z,8.21
2019-05-01T21:56:02.262Z,8.20
2019-05-01T21:58:33.385Z,8.18
2019-05-01T22:01:01.769Z,8.16
2019-05-01T22:03:30.201Z,8.14
2019-05-01T22:05:58.606Z,8.16
2019-05-01T22:08:27.205Z,8.14
2019-05-01T22:10:57.642Z,8.13
2019-05-01T22:13:26.203Z,8.13
2019-05-01T22:15:56.247Z,8.12
2019-05-01T22:18:26.314Z,8.10
2019-05-01T22:20:56.365Z,8.09
2019-05-01T22:23:26.701Z,8.08
2019-05-01T22:25:56.819Z,8.06
2019-05-01T22:28:43.464Z,8.06
2019-05-01T22:31:29.529Z,8.00
2019-05-01T22:34:11.400Z,8.00
2019-05-01T22:36:39.876Z,7.97
2019-05-01T22:39:08.643Z,7.94
2019-05-01T22:41:37.051Z,7.93
2019-05-01T22:44:05.925Z,7.91
2019-05-01T22:46:39.070Z,7.91
2019-05-01T22:49:04.551Z,7.88
2019-05-01T22:51:32.960Z,7.90
2019-05-01T22:54:01.394Z,7.91
2019-05-01T22:56:29.800Z,7.87
2019-05-01T22:58:58.207Z,7.90
2019-05-01T23:01:27.278Z,7.90
2019-05-01T23:03:57.390Z,7.88
2019-05-01T23:06:25.895Z,7.86
2019-05-01T23:08:54.302Z,7.88
2019-05-01T23:11:24.072Z,7.86
2019-05-01T23:13:52.479Z,7.86
2019-05-01T23:16:22.547Z,7.89
2019-05-01T23:18:51.824Z,7.87
2019-05-01T23:21:21.097Z,7.87
2019-05-01T23:23:49.499Z,7.90
2019-05-01T23:26:18.632Z,7.87
2019-05-01T23:28:47.215Z,7.87
2019-05-01T23:31:15.813Z,7.88
2019-05-01T23:33:45.749Z,7.86
2019-05-01T23:36:23.321Z,7.87
2019-05-01T23:38:44.571Z,7.84
2019-05-01T23:41:13.073Z,7.81
2019-05-01T23:43:41.483Z,7.81
2019-05-01T23:46:09.987Z,7.80
2019-05-01T23:48:38.391Z,7.77
2019-05-01T23:51:06.830Z,7.72
2019-05-01T23:53:35.310Z,7.75
2019-05-01T23:56:03.736Z,7.74
2019-05-01T23:58:32.133Z,7.74
